createdAt,value
2019-02-06T00:04:04.636Z,-1.40
2019-02-06T00:10:07.067Z,-1.70
2019-02-06T00:16:09.374Z,-1.50
2019-02-06T00:22:11.660Z,-1.40
2019-02-06T00:28:13.797Z,-1.40
2019-02-06T00:34:16.010Z,-1.40
2019-02-06T00:40:21.380Z,-1.40
2019-02-06T00:46:23.586Z,-1.40
2019-02-06T00:52:25.760Z,-1.40
2019-02-06T00:58:28.519Z,-1.50
2019-02-06T01:04:30.894Z,-1.40
2019-02-06T01:10:33.177Z,-1.40
2019-02-06T01:16:35.511Z,-1.40
2019-02-06T01:22:38.172Z,-1.40
2019-02-06T01:28:41.408Z,-1.40
2019-02-06T01:34:43.833Z,-1.50
2019-02-06T01:40:46.041Z,-1.50
2019-02-06T01:46:48.231Z,-1.40
2019-02-06T01:52:50.512Z,-1.40
2019-02-06T01:58:54.171Z,-1.50
2019-02-06T02:04:56.327Z,-1.60
2019-02-06T02:10:58.490Z,-1.60
2019-02-06T02:17:01.752Z,-1.60
2019-02-06T02:23:04.187Z,-1.50
2019-02-06T02:29:06.711Z,-1.70
2019-02-06T02:35:09.144Z,-1.80
2019-02-06T02:41:11.299Z,-1.70
2019-02-06T02:47:13.562Z,-1.60
2019-02-06T02:53:15.751Z,-1.60
2019-02-06T02:59:18.782Z,-1.50
2019-02-06T03:05:22.888Z,-1.50
2019-02-06T03:11:25.210Z,-1.80
2019-02-06T03:17:30.351Z,-1.60
2019-02-06T03:23:32.882Z,-1.70
2019-02-06T03:29:35.015Z,-1.60
2019-02-06T03:35:37.286Z,-1.60
2019-02-06T03:41:40.660Z,-1.70
2019-02-06T03:47:44.238Z,-1.90
2019-02-06T03:53:46.470Z,-1.70
2019-02-06T03:59:48.679Z,-1.60
2019-02-06T04:05:52.243Z,-1.60
2019-02-06T04:11:54.544Z,-1.60
2019-02-06T04:17:56.717Z,-1.70
2019-02-06T04:23:58.849Z,-1.70
2019-02-06T04:30:01.023Z,-1.70
2019-02-06T04:36:03.839Z,-1.70
2019-02-06T04:42:06.104Z,-1.60
2019-02-06T04:48:08.704Z,-1.70
2019-02-06T04:54:11.029Z,-1.70
2019-02-06T05:00:19.172Z,-1.70
2019-02-06T05:06:23.358Z,-1.70
2019-02-06T05:12:25.519Z,-1.70
2019-02-06T05:18:28.043Z,-1.80
2019-02-06T05:24:30.239Z,-1.80
2019-02-06T05:30:32.843Z,-2.00
2019-02-06T05:36:34.981Z,-2.00
2019-02-06T05:42:37.267Z,-2.00
2019-02-06T05:48:39.761Z,-2.00
2019-02-06T05:54:43.164Z,-2.00
2019-02-06T06:00:46.767Z,-2.00
2019-02-06T06:06:50.987Z,-1.90
2019-02-06T06:12:54.299Z,-1.90
2019-02-06T06:18:56.404Z,-1.90
2019-02-06T06:24:58.820Z,-1.90
2019-02-06T06:31:01.063Z,-1.90
2019-02-06T06:37:03.366Z,-2.10
2019-02-06T06:43:05.646Z,-2.20
2019-02-06T06:49:08.105Z,-2.10
2019-02-06T06:55:11.012Z,-2.10
2019-02-06T07:01:13.572Z,-2.10
2019-02-06T07:07:16.027Z,-2.20
2019-02-06T07:13:18.835Z,-2.10
2019-02-06T07:19:21.062Z,-2.10
2019-02-06T07:25:24.879Z,-2.00
2019-02-06T07:31:28.268Z,-2.10
2019-02-06T07:37:30.474Z,-2.00
2019-02-06T07:43:36.128Z,-2.00
2019-02-06T07:49:38.426Z,-2.00
2019-02-06T07:55:40.548Z,-2.00
2019-02-06T08:01:42.730Z,-2.00
2019-02-06T08:07:44.842Z,-1.90
2019-02-06T08:13:47.411Z,-1.90
2019-02-06T08:19:49.564Z,-1.80
2019-02-06T08:25:51.949Z,-1.80
2019-02-06T08:31:54.719Z,-1.80
2019-02-06T08:37:58.356Z,-1.80
2019-02-06T08:44:01.874Z,-1.70
2019-02-06T08:50:06.503Z,-1.70
2019-02-06T08:56:08.699Z,-1.60
2019-02-06T09:02:10.918Z,-1.60
2019-02-06T09:08:13.089Z,-1.50
2019-02-06T09:14:16.808Z,-1.40
2019-02-06T09:20:21.139Z,-1.40
2019-02-06T09:26:23.910Z,-1.40
2019-02-06T09:32:26.088Z,-1.30
2019-02-06T09:38:28.348Z,-1.20
2019-02-06T09:44:30.454Z,-1.10
2019-02-06T09:50:34.548Z,-1.10
2019-02-06T09:56:37.223Z,-1.10
2019-02-06T10:02:39.337Z,-1.00
2019-02-06T10:08:41.624Z,-0.90
2019-02-06T10:14:45.856Z,-0.80
2019-02-06T10:20:49.910Z,-0.70
2019-02-06T10:26:52.023Z,-0.70
2019-02-06T10:32:54.128Z,-0.70
2019-02-06T10:38:56.331Z,-0.60
2019-02-06T10:44:58.490Z,-0.60
2019-02-06T10:51:00.670Z,-0.50
2019-02-06T10:57:02.815Z,-0.50
2019-02-06T11:03:05.046Z,-0.40
2019-02-06T11:09:07.275Z,-0.30
2019-02-06T11:15:09.924Z,-0.20
2019-02-06T11:21:14.150Z,-0.10
2019-02-06T11:27:16.597Z,-0.10
2019-02-06T11:33:19.889Z,0.00
2019-02-06T11:39:23.439Z,0.10
2019-02-06T11:45:27.553Z,0.10
2019-02-06T11:51:29.877Z,0.20
2019-02-06T11:57:32.382Z,0.20
2019-02-06T12:03:36.728Z,0.20
2019-02-06T12:09:39.650Z,0.30
2019-02-06T12:15:43.922Z,0.40
2019-02-06T12:22:11.484Z,0.50
2019-02-06T12:28:15.543Z,0.40
2019-02-06T12:34:18.321Z,0.50
2019-02-06T12:40:22.092Z,0.60
2019-02-06T12:46:25.094Z,0.60
2019-02-06T12:52:27.393Z,0.70
2019-02-06T12:58:29.551Z,0.90
2019-02-06T13:04:31.798Z,1.00
2019-02-06T13:10:34.581Z,1.00
2019-02-06T13:16:36.786Z,1.10
2019-02-06T13:22:39.015Z,1.10
2019-02-06T13:28:41.131Z,1.10
2019-02-06T13:34:44.251Z,1.10
2019-02-06T13:40:46.509Z,1.00
2019-02-06T13:46:53.265Z,1.00
2019-02-06T13:52:52.839Z,1.00
2019-02-06T13:58:55.327Z,1.00
2019-02-06T14:05:00.297Z,1.10
2019-02-06T14:11:02.687Z,0.90
2019-02-06T14:17:06.010Z,1.00
2019-02-06T14:23:17.301Z,1.10
2019-02-06T14:29:55.979Z,1.20
2019-02-06T14:36:49.120Z,1.20
2019-02-06T14:43:12.709Z,1.00
2019-02-06T14:49:56.787Z,1.20
2019-02-06T14:56:37.017Z,1.10
2019-02-06T15:03:20.987Z,1.10
2019-02-06T15:10:02.926Z,0.90
2019-02-06T15:16:33.903Z,1.00
2019-02-06T15:23:16.306Z,1.00
2019-02-06T15:30:06.863Z,1.00
2019-02-06T15:36:35.519Z,0.90
2019-02-06T15:43:04.304Z,0.90
2019-02-06T15:49:21.942Z,0.80
2019-02-06T15:55:58.016Z,0.60
2019-02-06T16:02:26.406Z,0.50
2019-02-06T16:09:13.271Z,0.30
2019-02-06T16:15:45.223Z,0.30
2019-02-06T16:22:20.511Z,0.40
2019-02-06T16:28:39.061Z,0.20
2019-02-06T16:35:22.642Z,0.20
2019-02-06T16:42:05.915Z,0.10
2019-02-06T16:48:35.754Z,0.10
2019-02-06T17:02:04.408Z,0.00
2019-02-06T17:08:28.941Z,-0.20
2019-02-06T17:15:08.788Z,-0.10
2019-02-06T17:21:54.714Z,0.00
2019-02-06T17:28:35.115Z,0.00
2019-02-06T17:35:34.628Z,0.00
2019-02-06T17:41:47.359Z,-0.10
2019-02-06T17:48:28.980Z,0.00
2019-02-06T17:55:19.742Z,0.00
2019-02-06T18:01:39.697Z,0.00
2019-02-06T18:07:41.923Z,0.10
2019-02-06T18:13:45.255Z,0.10
2019-02-06T18:19:47.426Z,0.00
2019-02-06T18:25:51.558Z,0.00
2019-02-06T18:31:55.049Z,0.10
2019-02-06T18:37:57.178Z,0.10
2019-02-06T18:43:59.874Z,0.00
2019-02-06T18:50:02.891Z,0.10
2019-02-06T18:56:05.283Z,0.10
2019-02-06T19:02:07.606Z,0.10
2019-02-06T19:08:10.115Z,0.00
2019-02-06T19:14:12.430Z,0.10
2019-02-06T19:20:15.504Z,0.00
2019-02-06T19:26:17.964Z,-0.10
2019-02-06T19:32:20.145Z,0.00
2019-02-06T19:38:22.918Z,-0.10
2019-02-06T19:44:25.194Z,-0.10
2019-02-06T19:50:29.798Z,0.00
2019-02-06T19:56:33.202Z,-0.10
2019-02-06T20:02:35.542Z,-0.10
2019-02-06T20:08:37.931Z,-0.10
2019-02-06T20:14:40.003Z,-0.20
2019-02-06T20:20:46.995Z,-0.20
2019-02-06T20:26:49.426Z,-0.20
2019-02-06T20:32:52.657Z,-0.20
2019-02-06T20:38:55.476Z,-0.20
2019-02-06T20:44:59.443Z,-0.30
2019-02-06T20:51:01.740Z,-0.40
2019-02-06T20:57:12.382Z,-0.40
2019-02-06T21:03:10.567Z,-0.40
2019-02-06T21:09:16.064Z,-0.40
2019-02-06T21:15:18.323Z,-0.40
2019-02-06T21:21:21.177Z,-0.40
2019-02-06T21:27:44.338Z,-0.50
2019-02-06T21:33:46.959Z,-0.50
2019-02-06T21:39:49.204Z,-0.60
2019-02-06T21:45:52.520Z,-0.60
2019-02-06T21:51:55.888Z,-0.60
2019-02-06T21:57:59.828Z,-0.60
2019-02-06T22:04:02.007Z,-0.60
2019-02-06T22:10:05.232Z,-0.60
2019-02-06T22:16:07.795Z,-0.60
2019-02-06T22:22:11.196Z,-0.70
2019-02-06T22:28:13.630Z,-0.70
2019-02-06T22:34:15.803Z,-0.80
2019-02-06T22:40:20.367Z,-1.00
2019-02-06T22:46:23.759Z,-1.10
2019-02-06T22:52:25.902Z,-1.30
2019-02-06T22:58:38.269Z,-1.30
2019-02-06T23:04:40.371Z,-1.40
2019-02-06T23:10:42.495Z,-1.60
2019-02-06T23:16:46.381Z,-1.70
2019-02-06T23:22:48.492Z,-1.80
2019-02-06T23:28:50.898Z,-2.00
2019-02-06T23:34:54.509Z,-2.10
2019-02-06T23:40:57.129Z,-2.10
2019-02-06T23:46:59.229Z,-2.10
2019-02-06T23:53:01.559Z,-2.40
2019-02-06T23:59:03.860Z,-2.50
